sensor_id;sensor_type;location;lat;lon;timestamp;pressure;altitude;pressure_sealevel;temperature;humidity
32875;BME280;40468;42.128;24.750;2023-03-04T00:01:13;99861.06;;;4.85;81.36
32875;BME280;40468;42.128;24.750;2023-03-04T00:02:45;99860.22;;;4.83;81.55
32875;BME280;40468;42.128;24.750;2023-03-04T00:04:16;99856.81;;;4.83;81.57
32875;BME280;40468;42.128;24.750;2023-03-04T00:05:48;99857.66;;;4.83;81.75
32875;BME280;40468;42.128;24.750;2023-03-04T00:07:19;99849.91;;;4.83;81.67
32875;BME280;40468;42.128;24.750;2023-03-04T00:08:51;99858.50;;;4.84;81.72
32875;BME280;40468;42.128;24.750;2023-03-04T00:10:21;99853.34;;;4.84;81.68
32875;BME280;40468;42.128;24.750;2023-03-04T00:11:53;99853.34;;;4.82;81.72
32875;BME280;40468;42.128;24.750;2023-03-04T00:13:24;99853.34;;;4.84;81.67
32875;BME280;40468;42.128;24.750;2023-03-04T00:14:55;99854.22;;;4.83;81.73
32875;BME280;40468;42.128;24.750;2023-03-04T00:16:28;99847.34;;;4.83;81.76
32875;BME280;40468;42.128;24.750;2023-03-04T00:17:59;99852.50;;;4.83;81.82
32875;BME280;40468;42.128;24.750;2023-03-04T00:19:30;99848.19;;;4.82;81.69
32875;BME280;40468;42.128;24.750;2023-03-04T00:21:01;99845.59;;;4.82;81.77
32875;BME280;40468;42.128;24.750;2023-03-04T00:22:32;99839.66;;;4.80;81.75
32875;BME280;40468;42.128;24.750;2023-03-04T00:24:03;99843.09;;;4.79;81.92
32875;BME280;40468;42.128;24.750;2023-03-04T00:25:34;99851.78;;;4.75;81.85
32875;BME280;40468;42.128;24.750;2023-03-04T00:27:05;99846.69;;;4.72;81.88
32875;BME280;40468;42.128;24.750;2023-03-04T00:28:37;99850.22;;;4.68;81.94
32875;BME280;40468;42.128;24.750;2023-03-04T00:30:09;99854.56;;;4.66;82.03
32875;BME280;40468;42.128;24.750;2023-03-04T00:31:42;99853.78;;;4.62;81.99
32875;BME280;40468;42.128;24.750;2023-03-04T00:33:14;99848.63;;;4.61;82.07
32875;BME280;40468;42.128;24.750;2023-03-04T00:34:45;99844.38;;;4.60;82.24
32875;BME280;40468;42.128;24.750;2023-03-04T00:36:17;99847.84;;;4.59;82.29
32875;BME280;40468;42.128;24.750;2023-03-04T00:37:48;99848.75;;;4.56;82.24
32875;BME280;40468;42.128;24.750;2023-03-04T00:39:19;99843.59;;;4.56;82.19
32875;BME280;40468;42.128;24.750;2023-03-04T00:40:50;99844.44;;;4.55;82.22
32875;BME280;40468;42.128;24.750;2023-03-04T00:42:21;99840.19;;;4.54;82.26
32875;BME280;40468;42.128;24.750;2023-03-04T00:43:53;99838.50;;;4.53;82.35
32875;BME280;40468;42.128;24.750;2023-03-04T00:45:24;99840.19;;;4.54;82.30
32875;BME280;40468;42.128;24.750;2023-03-04T00:46:56;99835.88;;;4.54;82.21
32875;BME280;40468;42.128;24.750;2023-03-04T00:48:28;99841.88;;;4.55;82.16
32875;BME280;40468;42.128;24.750;2023-03-04T00:49:59;99845.34;;;4.54;82.27
32875;BME280;40468;42.128;24.750;2023-03-04T00:51:31;99841.06;;;4.53;82.30
32875;BME280;40468;42.128;24.750;2023-03-04T00:53:02;99854.81;;;4.53;82.29
32875;BME280;40468;42.128;24.750;2023-03-04T00:54:34;99847.09;;;4.52;82.40
32875;BME280;40468;42.128;24.750;2023-03-04T00:56:06;99842.81;;;4.51;82.28
32875;BME280;40468;42.128;24.750;2023-03-04T00:57:38;99844.63;;;4.47;82.52
32875;BME280;40468;42.128;24.750;2023-03-04T00:59:09;99844.63;;;4.47;82.41
32875;BME280;40468;42.128;24.750;2023-03-04T01:00:40;99842.88;;;4.48;82.71
32875;BME280;40468;42.128;24.750;2023-03-04T01:02:13;99850.63;;;4.48;82.72
32875;BME280;40468;42.128;24.750;2023-03-04T01:03:44;99848.03;;;4.48;82.71
32875;BME280;40468;42.128;24.750;2023-03-04T01:05:15;99848.88;;;4.50;82.54
32875;BME280;40468;42.128;24.750;2023-03-04T01:06:46;99849.78;;;4.47;82.59
32875;BME280;40468;42.128;24.750;2023-03-04T01:08:18;99842.09;;;4.44;82.95
32875;BME280;40468;42.128;24.750;2023-03-04T01:09:49;99838.69;;;4.42;83.01
32875;BME280;40468;42.128;24.750;2023-03-04T01:11:20;99840.44;;;4.42;83.14
32875;BME280;40468;42.128;24.750;2023-03-04T01:12:52;99833.53;;;4.41;83.35
32875;BME280;40468;42.128;24.750;2023-03-04T01:14:22;99841.28;;;4.42;83.44
32875;BME280;40468;42.128;24.750;2023-03-04T01:15:54;99835.22;;;4.43;83.43
32875;BME280;40468;42.128;24.750;2023-03-04T01:17:28;99836.06;;;4.45;83.36
32875;BME280;40468;42.128;24.750;2023-03-04T01:18:59;99830.88;;;4.47;83.29
32875;BME280;40468;42.128;24.750;2023-03-04T01:20:31;99833.41;;;4.48;83.45
32875;BME280;40468;42.128;24.750;2023-03-04T01:22:02;99833.41;;;4.50;83.31
32875;BME280;40468;42.128;24.750;2023-03-04T01:23:34;99829.03;;;4.52;83.28
32875;BME280;40468;42.128;24.750;2023-03-04T01:25:05;99837.59;;;4.55;83.31
32875;BME280;40468;42.128;24.750;2023-03-04T01:26:37;99828.13;;;4.56;83.11
32875;BME280;40468;42.128;24.750;2023-03-04T01:28:08;99828.06;;;4.59;83.01
32875;BME280;40468;42.128;24.750;2023-03-04T01:29:40;99828.91;;;4.58;82.91
32875;BME280;40468;42.128;24.750;2023-03-04T01:31:12;99826.31;;;4.60;82.94
32875;BME280;40468;42.128;24.750;2023-03-04T01:32:45;99836.63;;;4.60;82.86
32875;BME280;40468;42.128;24.750;2023-03-04T01:34:16;99827.28;;;4.54;83.02
32875;BME280;40468;42.128;24.750;2023-03-04T01:35:47;99833.22;;;4.57;82.99
32875;BME280;40468;42.128;24.750;2023-03-04T01:37:18;99828.91;;;4.58;82.90
32875;BME280;40468;42.128;24.750;2023-03-04T01:38:50;99827.22;;;4.59;82.99
32875;BME280;40468;42.128;24.750;2023-03-04T01:40:21;99834.91;;;4.60;83.00
32875;BME280;40468;42.128;24.750;2023-03-04T01:41:53;99821.16;;;4.60;82.99
32875;BME280;40468;42.128;24.750;2023-03-04T01:43:25;99822.06;;;4.57;83.06
32875;BME280;40468;42.128;24.750;2023-03-04T01:44:57;99822.13;;;4.55;82.94
32875;BME280;40468;42.128;24.750;2023-03-04T01:46:29;99820.44;;;4.53;82.97
32875;BME280;40468;42.128;24.750;2023-03-04T01:48:03;99821.31;;;4.52;83.24
32875;BME280;40468;42.128;24.750;2023-03-04T01:49:35;99820.44;;;4.53;83.20
32875;BME280;40468;42.128;24.750;2023-03-04T01:51:10;99815.28;;;4.53;83.32
32875;BME280;40468;42.128;24.750;2023-03-04T01:52:42;99821.28;;;4.53;83.00
32875;BME280;40468;42.128;24.750;2023-03-04T01:54:14;99820.41;;;4.54;82.99
32875;BME280;40468;42.128;24.750;2023-03-04T01:55:45;99816.97;;;4.54;82.96
32875;BME280;40468;42.128;24.750;2023-03-04T01:57:18;99812.72;;;4.53;82.99
32875;BME280;40468;42.128;24.750;2023-03-04T01:59:09;99815.25;;;4.54;83.06
32875;BME280;40468;42.128;24.750;2023-03-04T02:00:41;99808.34;;;4.55;82.95
32875;BME280;40468;42.128;24.750;2023-03-04T02:02:13;99807.50;;;4.54;83.12
32875;BME280;40468;42.128;24.750;2023-03-04T02:03:46;99816.13;;;4.53;83.06
32875;BME280;40468;42.128;24.750;2023-03-04T02:05:17;99821.31;;;4.52;83.04
32875;BME280;40468;42.128;24.750;2023-03-04T02:06:49;99817.00;;;4.52;82.98
32875;BME280;40468;42.128;24.750;2023-03-04T02:08:21;99815.28;;;4.53;82.98
32875;BME280;40468;42.128;24.750;2023-03-04T02:09:53;99809.28;;;4.51;83.10
32875;BME280;40468;42.128;24.750;2023-03-04T02:11:24;99799.81;;;4.53;82.97
32875;BME280;40468;42.128;24.750;2023-03-04T02:12:56;99798.91;;;4.54;82.95
32875;BME280;40468;42.128;24.750;2023-03-04T02:14:28;99807.50;;;4.54;82.99
32875;BME280;40468;42.128;24.750;2023-03-04T02:16:00;99805.75;;;4.55;83.12
32875;BME280;40468;42.128;24.750;2023-03-04T02:17:32;99808.34;;;4.55;83.15
32875;BME280;40468;42.128;24.750;2023-03-04T02:19:13;99808.34;;;4.55;83.15
32875;BME280;40468;42.128;24.750;2023-03-04T02:20:49;99795.44;;;4.55;83.10
32875;BME280;40468;42.128;24.750;2023-03-04T02:22:22;99804.91;;;4.54;83.19
32875;BME280;40468;42.128;24.750;2023-03-04T02:23:56;99804.91;;;4.54;83.17
32875;BME280;40468;42.128;24.750;2023-03-04T02:25:32;99804.91;;;4.54;83.26
32875;BME280;40468;42.128;24.750;2023-03-04T02:27:07;99810.06;;;4.56;83.15
32875;BME280;40468;42.128;24.750;2023-03-04T02:28:39;99795.44;;;4.55;83.12
32875;BME280;40468;42.128;24.750;2023-03-04T02:30:10;99798.91;;;4.55;83.32
32875;BME280;40468;42.128;24.750;2023-03-04T02:31:43;99788.59;;;4.55;83.29
32875;BME280;40468;42.128;24.750;2023-03-04T02:33:16;99792.81;;;4.58;83.21
32875;BME280;40468;42.128;24.750;2023-03-04T02:34:47;99791.09;;;4.59;83.31
32875;BME280;40468;42.128;24.750;2023-03-04T02:36:19;99792.81;;;4.58;83.31
32875;BME280;40468;42.128;24.750;2023-03-04T02:37:50;99786.78;;;4.59;83.12
32875;BME280;40468;42.128;24.750;2023-03-04T02:39:22;99784.22;;;4.59;83.25
32875;BME280;40468;42.128;24.750;2023-03-04T02:40:54;99785.06;;;4.60;83.27
32875;BME280;40468;42.128;24.750;2023-03-04T02:42:29;99783.31;;;4.60;83.28
32875;BME280;40468;42.128;24.750;2023-03-04T02:43:59;99779.84;;;4.61;83.35
32875;BME280;40468;42.128;24.750;2023-03-04T02:45:39;99779.84;;;4.61;83.43
32875;BME280;40468;42.128;24.750;2023-03-04T02:47:10;99786.72;;;4.62;83.25
32875;BME280;40468;42.128;24.750;2023-03-04T02:48:42;99779.84;;;4.61;83.40
32875;BME280;40468;42.128;24.750;2023-03-04T02:50:13;99784.09;;;4.64;83.34
32875;BME280;40468;42.128;24.750;2023-03-04T02:51:44;99786.66;;;4.64;83.47
32875;BME280;40468;42.128;24.750;2023-03-04T02:53:16;99784.94;;;4.64;83.34
32875;BME280;40468;42.128;24.750;2023-03-04T02:54:47;99787.50;;;4.66;83.35
32875;BME280;40468;42.128;24.750;2023-03-04T02:56:18;99778.91;;;4.65;83.27
32875;BME280;40468;42.128;24.750;2023-03-04T02:57:51;99782.34;;;4.66;83.31
32875;BME280;40468;42.128;24.750;2023-03-04T02:59:22;99790.91;;;4.66;83.40
32875;BME280;40468;42.128;24.750;2023-03-04T03:00:53;99789.22;;;4.65;83.30
32875;BME280;40468;42.128;24.750;2023-03-04T03:02:25;99790.06;;;4.66;83.42
32875;BME280;40468;42.128;24.750;2023-03-04T03:03:56;99790.06;;;4.66;83.35
32875;BME280;40468;42.128;24.750;2023-03-04T03:05:28;99793.53;;;4.65;83.30
32875;BME280;40468;42.128;24.750;2023-03-04T03:07:01;99800.41;;;4.66;83.41
32875;BME280;40468;42.128;24.750;2023-03-04T03:08:32;99791.81;;;4.65;83.24
32875;BME280;40468;42.128;24.750;2023-03-04T03:10:04;99794.41;;;4.64;83.27
32875;BME280;40468;42.128;24.750;2023-03-04T03:11:35;99803.03;;;4.63;83.40
32875;BME280;40468;42.128;24.750;2023-03-04T03:13:08;99803.88;;;4.63;83.40
32875;BME280;40468;42.128;24.750;2023-03-04T03:14:38;99806.47;;;4.63;83.51
32875;BME280;40468;42.128;24.750;2023-03-04T03:16:10;99809.09;;;4.60;83.44
32875;BME280;40468;42.128;24.750;2023-03-04T03:17:44;99809.94;;;4.62;83.66
32875;BME280;40468;42.128;24.750;2023-03-04T03:19:15;99809.03;;;4.63;83.51
32875;BME280;40468;42.128;24.750;2023-03-04T03:20:47;99804.72;;;4.64;83.40
32875;BME280;40468;42.128;24.750;2023-03-04T03:22:19;99812.44;;;4.65;83.63
32875;BME280;40468;42.128;24.750;2023-03-04T03:23:50;99812.47;;;4.64;83.55
32875;BME280;40468;42.128;24.750;2023-03-04T03:25:21;99815.03;;;4.64;83.43
32875;BME280;40468;42.128;24.750;2023-03-04T03:26:53;99814.19;;;4.63;83.62
32875;BME280;40468;42.128;24.750;2023-03-04T03:28:25;99822.78;;;4.64;83.64
32875;BME280;40468;42.128;24.750;2023-03-04T03:29:56;99819.34;;;4.65;83.49
32875;BME280;40468;42.128;24.750;2023-03-04T03:31:27;99813.31;;;4.64;83.39
32875;BME280;40468;42.128;24.750;2023-03-04T03:32:58;99817.63;;;4.64;83.40
32875;BME280;40468;42.128;24.750;2023-03-04T03:34:30;99816.78;;;4.63;83.59
32875;BME280;40468;42.128;24.750;2023-03-04T03:36:02;99811.66;;;4.62;83.48
32875;BME280;40468;42.128;24.750;2023-03-04T03:37:34;99811.66;;;4.62;83.45
32875;BME280;40468;42.128;24.750;2023-03-04T03:39:05;99809.94;;;4.61;83.58
32875;BME280;40468;42.128;24.750;2023-03-04T03:40:36;99816.00;;;4.60;83.49
32875;BME280;40468;42.128;24.750;2023-03-04T03:42:08;99812.59;;;4.57;83.40
32875;BME280;40468;42.128;24.750;2023-03-04T03:43:40;99815.16;;;4.57;83.60
32875;BME280;40468;42.128;24.750;2023-03-04T03:45:11;99809.16;;;4.57;83.50
32875;BME280;40468;42.128;24.750;2023-03-04T03:46:42;99807.47;;;4.56;83.58
32875;BME280;40468;42.128;24.750;2023-03-04T03:48:13;99810.91;;;4.55;83.48
32875;BME280;40468;42.128;24.750;2023-03-04T03:49:45;99815.25;;;4.54;83.62
32875;BME280;40468;42.128;24.750;2023-03-04T03:51:16;99810.97;;;4.53;83.57
32875;BME280;40468;42.128;24.750;2023-03-04T03:52:48;99809.28;;;4.51;83.71
32875;BME280;40468;42.128;24.750;2023-03-04T03:54:19;99810.22;;;4.48;83.64
32875;BME280;40468;42.128;24.750;2023-03-04T03:55:50;99807.63;;;4.48;83.64
32875;BME280;40468;42.128;24.750;2023-03-04T03:57:22;99812.78;;;4.48;83.75
32875;BME280;40468;42.128;24.750;2023-03-04T03:58:55;99811.03;;;4.49;83.64
32875;BME280;40468;42.128;24.750;2023-03-04T04:00:27;99806.78;;;4.48;83.52
32875;BME280;40468;42.128;24.750;2023-03-04T04:01:57;99809.38;;;4.46;83.84
32875;BME280;40468;42.128;24.750;2023-03-04T04:03:29;99806.78;;;4.46;83.81
32875;BME280;40468;42.128;24.750;2023-03-04T04:05:01;99801.63;;;4.46;83.75
32875;BME280;40468;42.128;24.750;2023-03-04T04:06:32;99808.53;;;4.46;83.86
32875;BME280;40468;42.128;24.750;2023-03-04T04:08:03;99808.53;;;4.46;83.69
32875;BME280;40468;42.128;24.750;2023-03-04T04:09:35;99805.09;;;4.47;83.71
32875;BME280;40468;42.128;24.750;2023-03-04T04:11:07;99810.25;;;4.47;83.78
32875;BME280;40468;42.128;24.750;2023-03-04T04:12:39;99801.63;;;4.46;83.75
32875;BME280;40468;42.128;24.750;2023-03-04T04:14:13;99801.63;;;4.46;83.73
32875;BME280;40468;42.128;24.750;2023-03-04T04:15:44;99813.69;;;4.46;83.68
32875;BME280;40468;42.128;24.750;2023-03-04T04:17:16;99808.59;;;4.44;83.77
32875;BME280;40468;42.128;24.750;2023-03-04T04:18:48;99814.66;;;4.42;83.70
32875;BME280;40468;42.128;24.750;2023-03-04T04:20:19;99806.13;;;4.37;83.77
32875;BME280;40468;42.128;24.750;2023-03-04T04:21:51;99801.03;;;4.33;83.72
32875;BME280;40468;42.128;24.750;2023-03-04T04:23:22;99798.47;;;4.33;83.72
32875;BME280;40468;42.128;24.750;2023-03-04T04:24:54;99801.03;;;4.33;83.80
32875;BME280;40468;42.128;24.750;2023-03-04T04:26:25;99799.34;;;4.32;83.85
32875;BME280;40468;42.128;24.750;2023-03-04T04:27:57;99801.09;;;4.32;83.78
32875;BME280;40468;42.128;24.750;2023-03-04T04:29:30;99808.78;;;4.33;83.87
32875;BME280;40468;42.128;24.750;2023-03-04T04:31:02;99821.66;;;4.33;84.20
32875;BME280;40468;42.128;24.750;2023-03-04T04:32:35;99818.25;;;4.31;84.07
32875;BME280;40468;42.128;24.750;2023-03-04T04:34:07;99819.16;;;4.30;84.05
32875;BME280;40468;42.128;24.750;2023-03-04T04:35:39;99822.63;;;4.29;84.15
32875;BME280;40468;42.128;24.750;2023-03-04T04:37:10;99821.78;;;4.29;83.96
32875;BME280;40468;42.128;24.750;2023-03-04T04:38:42;99832.94;;;4.28;84.11
32875;BME280;40468;42.128;24.750;2023-03-04T04:40:13;99831.25;;;4.27;83.98
32875;BME280;40468;42.128;24.750;2023-03-04T04:41:44;99818.38;;;4.25;83.96
32875;BME280;40468;42.128;24.750;2023-03-04T04:43:16;99825.28;;;4.25;84.11
32875;BME280;40468;42.128;24.750;2023-03-04T04:44:48;99818.38;;;4.25;84.23
32875;BME280;40468;42.128;24.750;2023-03-04T04:46:21;99818.44;;;4.24;84.33
32875;BME280;40468;42.128;24.750;2023-03-04T04:47:53;99818.44;;;4.22;84.07
32875;BME280;40468;42.128;24.750;2023-03-04T04:49:26;99811.59;;;4.21;84.20
32875;BME280;40468;42.128;24.750;2023-03-04T04:50:58;99819.34;;;4.21;84.11
32875;BME280;40468;42.128;24.750;2023-03-04T04:52:28;99823.66;;;4.21;84.16
32875;BME280;40468;42.128;24.750;2023-03-04T04:54:00;99821.06;;;4.21;84.04
32875;BME280;40468;42.128;24.750;2023-03-04T04:55:32;99825.38;;;4.20;84.21
32875;BME280;40468;42.128;24.750;2023-03-04T04:57:04;99825.38;;;4.20;84.23
32875;BME280;40468;42.128;24.750;2023-03-04T04:58:35;99818.56;;;4.16;84.11
32875;BME280;40468;42.128;24.750;2023-03-04T05:00:09;99839.09;;;4.21;84.28
32875;BME280;40468;42.128;24.750;2023-03-04T05:01:40;99839.09;;;4.21;84.32
32875;BME280;40468;42.128;24.750;2023-03-04T05:03:12;99840.78;;;4.22;84.27
32875;BME280;40468;42.128;24.750;2023-03-04T05:04:43;99839.09;;;4.21;84.09
32875;BME280;40468;42.128;24.750;2023-03-04T05:06:14;99837.38;;;4.21;84.20
32875;BME280;40468;42.128;24.750;2023-03-04T05:07:45;99839.94;;;4.21;84.21
32875;BME280;40468;42.128;24.750;2023-03-04T05:09:16;99836.53;;;4.19;84.07
32875;BME280;40468;42.128;24.750;2023-03-04T05:10:48;99847.75;;;4.18;84.08
32875;BME280;40468;42.128;24.750;2023-03-04T05:12:19;99840.06;;;4.15;84.23
32875;BME280;40468;42.128;24.750;2023-03-04T05:13:50;99843.53;;;4.14;84.27
32875;BME280;40468;42.128;24.750;2023-03-04T05:15:23;99842.66;;;4.14;84.30
32875;BME280;40468;42.128;24.750;2023-03-04T05:16:54;99849.59;;;4.10;84.23
32875;BME280;40468;42.128;24.750;2023-03-04T05:18:26;99847.94;;;4.07;84.43
32875;BME280;40468;42.128;24.750;2023-03-04T05:19:57;99846.19;;;4.08;84.32
32875;BME280;40468;42.128;24.750;2023-03-04T05:21:28;99841.91;;;4.08;84.48
32875;BME280;40468;42.128;24.750;2023-03-04T05:22:59;99841.91;;;4.08;84.35
32875;BME280;40468;42.128;24.750;2023-03-04T05:24:30;99843.66;;;4.06;84.38
32875;BME280;40468;42.128;24.750;2023-03-04T05:26:03;99847.13;;;4.05;84.41
32875;BME280;40468;42.128;24.750;2023-03-04T05:27:35;99847.13;;;4.05;84.46
32875;BME280;40468;42.128;24.750;2023-03-04T05:29:06;99848.81;;;4.05;84.48
32875;BME280;40468;42.128;24.750;2023-03-04T05:30:39;99846.31;;;4.02;84.31
32875;BME280;40468;42.128;24.750;2023-03-04T05:32:10;99852.34;;;4.02;84.27
32875;BME280;40468;42.128;24.750;2023-03-04T05:33:42;99855.75;;;4.03;84.45
32875;BME280;40468;42.128;24.750;2023-03-04T05:35:13;99848.03;;;4.01;84.43
32875;BME280;40468;42.128;24.750;2023-03-04T05:36:45;99846.34;;;3.99;84.47
32875;BME280;40468;42.128;24.750;2023-03-04T05:38:16;99847.25;;;3.98;84.55
32875;BME280;40468;42.128;24.750;2023-03-04T05:39:48;99848.97;;;3.97;84.57
32875;BME280;40468;42.128;24.750;2023-03-04T05:41:18;99842.16;;;3.95;84.40
32875;BME280;40468;42.128;24.750;2023-03-04T05:42:51;99839.63;;;3.92;84.62
32875;BME280;40468;42.128;24.750;2023-03-04T05:44:22;99841.41;;;3.88;84.40
32875;BME280;40468;42.128;24.750;2023-03-04T05:45:55;99844.88;;;3.85;84.54
32875;BME280;40468;42.128;24.750;2023-03-04T05:47:27;99856.94;;;3.83;84.57
32875;BME280;40468;42.128;24.750;2023-03-04T05:48:58;99863.88;;;3.80;84.69
32875;BME280;40468;42.128;24.750;2023-03-04T05:50:30;99861.34;;;3.77;84.71
32875;BME280;40468;42.128;24.750;2023-03-04T05:52:02;99865.69;;;3.73;84.79
32875;BME280;40468;42.128;24.750;2023-03-04T05:53:34;99869.16;;;3.71;84.88
32875;BME280;40468;42.128;24.750;2023-03-04T05:55:06;99866.59;;;3.69;84.83
32875;BME280;40468;42.128;24.750;2023-03-04T05:56:37;99856.34;;;3.68;84.73
32875;BME280;40468;42.128;24.750;2023-03-04T05:58:09;99851.22;;;3.66;84.87
32875;BME280;40468;42.128;24.750;2023-03-04T05:59:40;99856.34;;;3.66;84.94
32875;BME280;40468;42.128;24.750;2023-03-04T06:01:13;99870.19;;;3.60;84.85
32875;BME280;40468;42.128;24.750;2023-03-04T06:02:45;99869.47;;;3.52;85.09
32875;BME280;40468;42.128;24.750;2023-03-04T06:04:16;99869.53;;;3.48;85.23
32875;BME280;40468;42.128;24.750;2023-03-04T06:05:47;99873.06;;;3.40;85.20
32875;BME280;40468;42.128;24.750;2023-03-04T06:07:19;99868.88;;;3.33;85.34
32875;BME280;40468;42.128;24.750;2023-03-04T06:08:50;99864.72;;;3.25;85.46
32875;BME280;40468;42.128;24.750;2023-03-04T06:10:22;99866.47;;;3.21;85.77
32875;BME280;40468;42.128;24.750;2023-03-04T06:11:53;99863.91;;;3.21;85.90
32875;BME280;40468;42.128;24.750;2023-03-04T06:13:25;99875.09;;;3.18;85.72
32875;BME280;40468;42.128;24.750;2023-03-04T06:14:57;99879.44;;;3.15;85.83
32875;BME280;40468;42.128;24.750;2023-03-04T06:16:30;99876.84;;;3.15;86.03
32875;BME280;40468;42.128;24.750;2023-03-04T06:18:02;99876.81;;;3.16;86.06
32875;BME280;40468;42.128;24.750;2023-03-04T06:19:33;99872.56;;;3.17;86.14
32875;BME280;40468;42.128;24.750;2023-03-04T06:21:07;99868.25;;;3.16;86.18
32875;BME280;40468;42.128;24.750;2023-03-04T06:22:38;99873.34;;;3.19;86.03
32875;BME280;40468;42.128;24.750;2023-03-04T06:24:10;99879.38;;;3.19;86.21
32875;BME280;40468;42.128;24.750;2023-03-04T06:25:41;99881.97;;;3.18;86.22
32875;BME280;40468;42.128;24.750;2023-03-04T06:27:13;99876.81;;;3.18;86.21
32875;BME280;40468;42.128;24.750;2023-03-04T06:28:45;99887.09;;;3.19;86.20
32875;BME280;40468;42.128;24.750;2023-03-04T06:30:17;99888.75;;;3.24;86.22
32875;BME280;40468;42.128;24.750;2023-03-04T06:31:49;99887.88;;;3.26;86.14
32875;BME280;40468;42.128;24.750;2023-03-04T06:33:20;99898.06;;;3.31;86.02
32875;BME280;40468;42.128;24.750;2023-03-04T06:34:52;99892.88;;;3.34;85.97
32875;BME280;40468;42.128;24.750;2023-03-04T06:36:24;99898.91;;;3.34;85.88
32875;BME280;40468;42.128;24.750;2023-03-04T06:37:54;99904.03;;;3.36;85.83
32875;BME280;40468;42.128;24.750;2023-03-04T06:39:26;99892.84;;;3.37;85.84
32875;BME280;40468;42.128;24.750;2023-03-04T06:41:04;99891.16;;;3.36;86.00
32875;BME280;40468;42.128;24.750;2023-03-04T06:42:36;99891.16;;;3.37;85.95
32875;BME280;40468;42.128;24.750;2023-03-04T06:44:07;99895.38;;;3.40;85.91
32875;BME280;40468;42.128;24.750;2023-03-04T06:45:39;99901.41;;;3.40;85.79
32875;BME280;40468;42.128;24.750;2023-03-04T06:47:12;99902.19;;;3.42;86.10
32875;BME280;40468;42.128;24.750;2023-03-04T06:48:44;99899.59;;;3.46;86.04
32875;BME280;40468;42.128;24.750;2023-03-04T06:50:15;99902.09;;;3.49;86.07
32875;BME280;40468;42.128;24.750;2023-03-04T06:51:47;99906.41;;;3.48;86.02
32875;BME280;40468;42.128;24.750;2023-03-04T06:53:18;99902.09;;;3.49;85.97
32875;BME280;40468;42.128;24.750;2023-03-04T06:54:50;99895.22;;;3.52;86.11
32875;BME280;40468;42.128;24.750;2023-03-04T06:56:21;99908.84;;;3.57;86.06
32875;BME280;40468;42.128;24.750;2023-03-04T06:57:53;99907.94;;;3.61;86.17
32875;BME280;40468;42.128;24.750;2023-03-04T06:59:25;99906.13;;;3.67;86.08
32875;BME280;40468;42.128;24.750;2023-03-04T07:00:55;99906.97;;;3.70;86.06
32875;BME280;40468;42.128;24.750;2023-03-04T07:02:28;99907.72;;;3.75;86.00
32875;BME280;40468;42.128;24.750;2023-03-04T07:04:00;99916.22;;;3.80;85.94
32875;BME280;40468;42.128;24.750;2023-03-04T07:05:31;99910.19;;;3.81;85.83
32875;BME280;40468;42.128;24.750;2023-03-04T07:07:03;99909.34;;;3.81;85.96
32875;BME280;40468;42.128;24.750;2023-03-04T07:08:34;99908.44;;;3.83;86.31
32875;BME280;40468;42.128;24.750;2023-03-04T07:10:06;99911.81;;;3.88;86.21
32875;BME280;40468;42.128;24.750;2023-03-04T07:11:39;99914.34;;;3.90;86.21
32875;BME280;40468;42.128;24.750;2023-03-04T07:13:11;99916.91;;;3.92;86.35
32875;BME280;40468;42.128;24.750;2023-03-04T07:14:42;99911.72;;;3.93;86.40
32875;BME280;40468;42.128;24.750;2023-03-04T07:16:15;99909.09;;;3.96;86.38
32875;BME280;40468;42.128;24.750;2023-03-04T07:17:48;99901.31;;;4.01;86.43
32875;BME280;40468;42.128;24.750;2023-03-04T07:19:19;99908.91;;;4.08;86.46
32875;BME280;40468;42.128;24.750;2023-03-04T07:20:51;99907.09;;;4.15;86.27
32875;BME280;40468;42.128;24.750;2023-03-04T07:22:22;99913.81;;;4.22;86.09
32875;BME280;40468;42.128;24.750;2023-03-04T07:23:53;99905.97;;;4.28;86.09
32875;BME280;40468;42.128;24.750;2023-03-04T07:25:25;99903.28;;;4.34;85.99
32875;BME280;40468;42.128;24.750;2023-03-04T07:26:57;99904.94;;;4.39;85.81
32875;BME280;40468;42.128;24.750;2023-03-04T07:28:28;99900.53;;;4.45;85.79
32875;BME280;40468;42.128;24.750;2023-03-04T07:30:00;99898.72;;;4.49;85.72
32875;BME280;40468;42.128;24.750;2023-03-04T07:31:32;99896.91;;;4.55;85.65
32875;BME280;40468;42.128;24.750;2023-03-04T07:33:05;99895.97;;;4.60;85.61
32875;BME280;40468;42.128;24.750;2023-03-04T07:34:36;99895.00;;;4.65;85.49
32875;BME280;40468;42.128;24.750;2023-03-04T07:36:08;99894.88;;;4.71;85.34
32875;BME280;40468;42.128;24.750;2023-03-04T07:37:40;99889.59;;;4.77;85.29
32875;BME280;40468;42.128;24.750;2023-03-04T07:39:11;99892.94;;;4.83;85.36
32875;BME280;40468;42.128;24.750;2023-03-04T07:40:43;99893.66;;;4.89;85.18
32875;BME280;40468;42.128;24.750;2023-03-04T07:42:15;99895.28;;;4.93;85.01
32875;BME280;40468;42.128;24.750;2023-03-04T07:43:46;99887.44;;;4.98;85.06
32875;BME280;40468;42.128;24.750;2023-03-04T07:45:17;99884.81;;;5.01;84.92
32875;BME280;40468;42.128;24.750;2023-03-04T07:46:49;99884.75;;;5.04;84.87
32875;BME280;40468;42.128;24.750;2023-03-04T07:48:22;99882.97;;;5.06;84.91
32875;BME280;40468;42.128;24.750;2023-03-04T07:49:53;99878.63;;;5.08;84.95
32875;BME280;40468;42.128;24.750;2023-03-04T07:51:25;99873.38;;;5.11;84.99
32875;BME280;40468;42.128;24.750;2023-03-04T07:52:57;99877.63;;;5.14;84.88
32875;BME280;40468;42.128;24.750;2023-03-04T07:54:29;99871.56;;;5.16;84.79
32875;BME280;40468;42.128;24.750;2023-03-04T07:56:00;99875.81;;;5.19;84.95
32875;BME280;40468;42.128;24.750;2023-03-04T07:57:32;99879.16;;;5.22;84.84
32875;BME280;40468;42.128;24.750;2023-03-04T07:59:04;99888.56;;;5.27;84.73
32875;BME280;40468;42.128;24.750;2023-03-04T08:00:35;99880.78;;;5.28;84.61
32875;BME280;40468;42.128;24.750;2023-03-04T08:02:06;99874.72;;;5.29;84.77
32875;BME280;40468;42.128;24.750;2023-03-04T08:03:40;99883.28;;;5.31;84.76
32875;BME280;40468;42.128;24.750;2023-03-04T08:05:12;99877.22;;;5.32;84.81
32875;BME280;40468;42.128;24.750;2023-03-04T08:06:43;99878.94;;;5.33;84.78